sensor_id;sensor_type;location;lat;lon;timestamp;P1;durP1;ratioP1;P2;durP2;ratioP2
22543;SDS011;11438;52.044;8.716;2024-02-15T00:00:55;7.95;;;6.05;;
22543;SDS011;11438;52.044;8.716;2024-02-15T00:03:23;7.72;;;5.68;;
22543;SDS011;11438;52.044;8.716;2024-02-15T00:05:48;6.20;;;5.28;;
22543;SDS011;11438;52.044;8.716;2024-02-15T00:08:14;6.50;;;5.78;;
22543;SDS011;11438;52.044;8.716;2024-02-15T00:10:40;7.22;;;5.78;;
22543;SDS011;11438;52.044;8.716;2024-02-15T00:13:05;7.30;;;5.63;;
22543;SDS011;11438;52.044;8.716;2024-02-15T00:15:31;6.22;;;5.63;;
22543;SDS011;11438;52.044;8.716;2024-02-15T00:17:58;6.10;;;4.88;;
22543;SDS011;11438;52.044;8.716;2024-02-15T00:20:23;6.07;;;5.47;;
22543;SDS011;11438;52.044;8.716;2024-02-15T00:22:49;5.88;;;5.25;;
22543;SDS011;11438;52.044;8.716;2024-02-15T00:25:15;5.88;;;5.38;;
22543;SDS011;11438;52.044;8.716;2024-02-15T00:27:41;6.13;;;5.50;;
22543;SDS011;11438;52.044;8.716;2024-02-15T00:30:06;5.78;;;5.15;;
22543;SDS011;11438;52.044;8.716;2024-02-15T00:32:33;6.65;;;5.03;;
22543;SDS011;11438;52.044;8.716;2024-02-15T00:34:59;5.82;;;4.82;;
22543;SDS011;11438;52.044;8.716;2024-02-15T00:37:24;5.18;;;4.68;;
22543;SDS011;11438;52.044;8.716;2024-02-15T00:39:50;6.88;;;5.18;;
22543;SDS011;11438;52.044;8.716;2024-02-15T00:42:16;6.78;;;4.68;;
22543;SDS011;11438;52.044;8.716;2024-02-15T00:44:41;5.80;;;4.40;;
22543;SDS011;11438;52.044;8.716;2024-02-15T00:47:09;6.63;;;4.70;;
22543;SDS011;11438;52.044;8.716;2024-02-15T00:49:35;5.25;;;4.40;;
22543;SDS011;11438;52.044;8.716;2024-02-15T00:52:01;5.32;;;4.82;;
22543;SDS011;11438;52.044;8.716;2024-02-15T00:54:26;7.07;;;5.03;;
22543;SDS011;11438;52.044;8.716;2024-02-15T00:56:52;7.22;;;4.93;;
22543;SDS011;11438;52.044;8.716;2024-02-15T00:59:17;6.25;;;4.90;;
22543;SDS011;11438;52.044;8.716;2024-02-15T01:01:43;4.80;;;4.30;;
22543;SDS011;11438;52.044;8.716;2024-02-15T01:04:09;4.97;;;4.22;;
22543;SDS011;11438;52.044;8.716;2024-02-15T01:06:35;4.97;;;4.35;;
22543;SDS011;11438;52.044;8.716;2024-02-15T01:09:01;6.63;;;4.55;;
22543;SDS011;11438;52.044;8.716;2024-02-15T01:11:28;4.78;;;4.28;;
22543;SDS011;11438;52.044;8.716;2024-02-15T01:13:54;5.07;;;4.38;;
22543;SDS011;11438;52.044;8.716;2024-02-15T01:16:20;4.80;;;4.30;;
22543;SDS011;11438;52.044;8.716;2024-02-15T01:18:49;5.30;;;4.80;;
22543;SDS011;11438;52.044;8.716;2024-02-15T01:21:15;6.68;;;5.20;;
22543;SDS011;11438;52.044;8.716;2024-02-15T01:23:40;6.18;;;5.10;;
22543;SDS011;11438;52.044;8.716;2024-02-15T01:26:07;6.25;;;4.90;;
22543;SDS011;11438;52.044;8.716;2024-02-15T01:28:33;6.53;;;5.47;;
22543;SDS011;11438;52.044;8.716;2024-02-15T01:30:58;6.47;;;5.32;;
22543;SDS011;11438;52.044;8.716;2024-02-15T01:33:24;7.13;;;6.07;;
22543;SDS011;11438;52.044;8.716;2024-02-15T01:35:49;8.52;;;6.57;;
22543;SDS011;11438;52.044;8.716;2024-02-15T01:38:15;7.50;;;6.32;;
22543;SDS011;11438;52.044;8.716;2024-02-15T01:40:40;7.63;;;6.85;;
22543;SDS011;11438;52.044;8.716;2024-02-15T01:43:07;8.00;;;7.13;;
22543;SDS011;11438;52.044;8.716;2024-02-15T01:45:33;9.43;;;7.03;;
22543;SDS011;11438;52.044;8.716;2024-02-15T01:47:58;8.05;;;6.45;;
22543;SDS011;11438;52.044;8.716;2024-02-15T01:50:24;8.25;;;7.40;;
22543;SDS011;11438;52.044;8.716;2024-02-15T01:52:52;8.27;;;6.88;;
22543;SDS011;11438;52.044;8.716;2024-02-15T01:55:19;8.32;;;6.68;;
22543;SDS011;11438;52.044;8.716;2024-02-15T01:57:46;7.53;;;6.72;;
22543;SDS011;11438;52.044;8.716;2024-02-15T02:00:15;6.88;;;6.18;;
22543;SDS011;11438;52.044;8.716;2024-02-15T02:02:42;6.68;;;6.00;;
22543;SDS011;11438;52.044;8.716;2024-02-15T02:05:09;7.20;;;5.95;;
22543;SDS011;11438;52.044;8.716;2024-02-15T02:07:35;6.75;;;6.03;;
22543;SDS011;11438;52.044;8.716;2024-02-15T02:10:01;7.03;;;6.32;;
22543;SDS011;11438;52.044;8.716;2024-02-15T02:12:27;6.10;;;5.50;;
22543;SDS011;11438;52.044;8.716;2024-02-15T02:14:53;6.88;;;5.95;;
22543;SDS011;11438;52.044;8.716;2024-02-15T02:17:19;6.57;;;5.70;;
22543;SDS011;11438;52.044;8.716;2024-02-15T02:19:45;7.78;;;5.97;;
22543;SDS011;11438;52.044;8.716;2024-02-15T02:22:11;6.72;;;5.75;;
22543;SDS011;11438;52.044;8.716;2024-02-15T02:24:55;5.90;;;5.30;;
22543;SDS011;11438;52.044;8.716;2024-02-15T02:27:31;7.35;;;5.45;;
22543;SDS011;11438;52.044;8.716;2024-02-15T02:29:57;8.07;;;6.25;;
22543;SDS011;11438;52.044;8.716;2024-02-15T02:32:24;8.98;;;6.53;;
22543;SDS011;11438;52.044;8.716;2024-02-15T02:34:51;7.78;;;6.45;;
22543;SDS011;11438;52.044;8.716;2024-02-15T02:37:22;7.55;;;6.28;;
22543;SDS011;11438;52.044;8.716;2024-02-15T02:39:50;7.53;;;6.30;;
22543;SDS011;11438;52.044;8.716;2024-02-15T02:42:16;7.10;;;6.10;;
22543;SDS011;11438;52.044;8.716;2024-02-15T02:44:41;7.57;;;6.43;;
22543;SDS011;11438;52.044;8.716;2024-02-15T02:47:07;7.68;;;6.10;;
22543;SDS011;11438;52.044;8.716;2024-02-15T02:49:32;7.68;;;6.32;;
22543;SDS011;11438;52.044;8.716;2024-02-15T02:52:00;7.10;;;6.40;;
22543;SDS011;11438;52.044;8.716;2024-02-15T02:54:26;6.40;;;5.75;;
22543;SDS011;11438;52.044;8.716;2024-02-15T02:56:51;7.22;;;6.47;;
22543;SDS011;11438;52.044;8.716;2024-02-15T02:59:17;7.82;;;6.30;;
22543;SDS011;11438;52.044;8.716;2024-02-15T03:01:42;6.75;;;5.93;;
22543;SDS011;11438;52.044;8.716;2024-02-15T03:04:08;7.88;;;6.25;;
22543;SDS011;11438;52.044;8.716;2024-02-15T03:06:33;6.22;;;5.35;;
22543;SDS011;11438;52.044;8.716;2024-02-15T03:08:59;7.72;;;6.40;;
22543;SDS011;11438;52.044;8.716;2024-02-15T03:11:24;6.88;;;6.15;;
22543;SDS011;11438;52.044;8.716;2024-02-15T03:13:50;7.05;;;5.82;;
22543;SDS011;11438;52.044;8.716;2024-02-15T03:16:15;7.10;;;5.60;;
22543;SDS011;11438;52.044;8.716;2024-02-15T03:18:41;6.00;;;5.38;;
22543;SDS011;11438;52.044;8.716;2024-02-15T03:21:08;5.65;;;5.07;;
22543;SDS011;11438;52.044;8.716;2024-02-15T03:23:35;7.05;;;6.30;;
22543;SDS011;11438;52.044;8.716;2024-02-15T03:26:02;7.88;;;6.05;;
22543;SDS011;11438;52.044;8.716;2024-02-15T03:28:28;6.75;;;5.85;;
22543;SDS011;11438;52.044;8.716;2024-02-15T03:30:54;6.57;;;5.70;;
22543;SDS011;11438;52.044;8.716;2024-02-15T03:33:20;7.15;;;5.75;;
22543;SDS011;11438;52.044;8.716;2024-02-15T03:35:51;7.65;;;6.45;;
22543;SDS011;11438;52.044;8.716;2024-02-15T03:38:17;7.38;;;5.95;;
22543;SDS011;11438;52.044;8.716;2024-02-15T03:40:42;9.25;;;7.25;;
22543;SDS011;11438;52.044;8.716;2024-02-15T03:43:08;9.68;;;7.85;;
22543;SDS011;11438;52.044;8.716;2024-02-15T03:45:34;8.43;;;7.50;;
22543;SDS011;11438;52.044;8.716;2024-02-15T03:47:59;10.23;;;8.07;;
22543;SDS011;11438;52.044;8.716;2024-02-15T03:50:25;12.80;;;9.65;;
22543;SDS011;11438;52.044;8.716;2024-02-15T03:52:50;10.90;;;9.23;;
22543;SDS011;11438;52.044;8.716;2024-02-15T03:55:16;14.02;;;9.40;;
22543;SDS011;11438;52.044;8.716;2024-02-15T03:57:42;12.48;;;9.23;;
22543;SDS011;11438;52.044;8.716;2024-02-15T04:00:11;13.70;;;10.55;;
22543;SDS011;11438;52.044;8.716;2024-02-15T04:02:40;11.80;;;10.10;;
22543;SDS011;11438;52.044;8.716;2024-02-15T04:05:06;12.07;;;10.25;;
22543;SDS011;11438;52.044;8.716;2024-02-15T04:07:32;13.32;;;11.02;;
22543;SDS011;11438;52.044;8.716;2024-02-15T04:09:58;14.40;;;10.70;;
22543;SDS011;11438;52.044;8.716;2024-02-15T04:12:25;12.57;;;10.50;;
22543;SDS011;11438;52.044;8.716;2024-02-15T04:14:51;13.13;;;10.48;;
22543;SDS011;11438;52.044;8.716;2024-02-15T04:17:17;12.60;;;9.65;;
22543;SDS011;11438;52.044;8.716;2024-02-15T04:19:46;14.27;;;9.70;;
22543;SDS011;11438;52.044;8.716;2024-02-15T04:22:13;13.00;;;10.25;;
22543;SDS011;11438;52.044;8.716;2024-02-15T04:24:41;11.68;;;9.60;;
22543;SDS011;11438;52.044;8.716;2024-02-15T04:27:07;14.27;;;10.88;;
22543;SDS011;11438;52.044;8.716;2024-02-15T04:29:45;11.70;;;10.30;;
22543;SDS011;11438;52.044;8.716;2024-02-15T04:32:11;13.30;;;10.45;;
22543;SDS011;11438;52.044;8.716;2024-02-15T04:34:37;14.07;;;10.32;;
22543;SDS011;11438;52.044;8.716;2024-02-15T04:37:03;13.98;;;10.20;;
22543;SDS011;11438;52.044;8.716;2024-02-15T04:39:32;13.65;;;10.60;;
22543;SDS011;11438;52.044;8.716;2024-02-15T04:41:58;13.50;;;10.57;;
22543;SDS011;11438;52.044;8.716;2024-02-15T04:44:25;11.52;;;9.98;;
22543;SDS011;11438;52.044;8.716;2024-02-15T04:46:52;13.25;;;10.05;;
22543;SDS011;11438;52.044;8.716;2024-02-15T04:49:19;15.48;;;9.52;;
22543;SDS011;11438;52.044;8.716;2024-02-15T04:51:45;11.05;;;9.02;;
22543;SDS011;11438;52.044;8.716;2024-02-15T04:54:10;12.88;;;8.90;;
22543;SDS011;11438;52.044;8.716;2024-02-15T04:56:42;14.27;;;8.93;;
22543;SDS011;11438;52.044;8.716;2024-02-15T04:59:08;10.57;;;8.25;;
22543;SDS011;11438;52.044;8.716;2024-02-15T05:01:37;10.88;;;7.55;;
22543;SDS011;11438;52.044;8.716;2024-02-15T05:04:02;9.20;;;7.90;;
22543;SDS011;11438;52.044;8.716;2024-02-15T05:06:32;8.65;;;6.97;;
22543;SDS011;11438;52.044;8.716;2024-02-15T05:08:58;8.10;;;7.00;;
22543;SDS011;11438;52.044;8.716;2024-02-15T05:11:25;8.15;;;6.47;;
22543;SDS011;11438;52.044;8.716;2024-02-15T05:13:51;8.20;;;6.47;;
22543;SDS011;11438;52.044;8.716;2024-02-15T05:16:17;9.15;;;6.03;;
22543;SDS011;11438;52.044;8.716;2024-02-15T05:18:43;11.73;;;6.15;;
22543;SDS011;11438;52.044;8.716;2024-02-15T05:21:10;8.95;;;6.03;;
22543;SDS011;11438;52.044;8.716;2024-02-15T05:23:36;7.38;;;5.60;;
22543;SDS011;11438;52.044;8.716;2024-02-15T05:26:02;8.05;;;6.32;;
22543;SDS011;11438;52.044;8.716;2024-02-15T05:28:28;6.63;;;5.50;;
22543;SDS011;11438;52.044;8.716;2024-02-15T05:33:44;7.28;;;5.53;;
22543;SDS011;11438;52.044;8.716;2024-02-15T05:36:15;6.85;;;5.20;;
22543;SDS011;11438;52.044;8.716;2024-02-15T05:38:45;6.78;;;5.35;;
22543;SDS011;11438;52.044;8.716;2024-02-15T05:41:17;8.57;;;5.45;;
22543;SDS011;11438;52.044;8.716;2024-02-15T05:43:44;7.65;;;4.95;;
22543;SDS011;11438;52.044;8.716;2024-02-15T05:46:10;6.75;;;4.85;;
22543;SDS011;11438;52.044;8.716;2024-02-15T05:48:36;7.90;;;4.75;;
22543;SDS011;11438;52.044;8.716;2024-02-15T05:51:06;7.03;;;5.00;;
22543;SDS011;11438;52.044;8.716;2024-02-15T05:53:33;7.40;;;4.38;;
22543;SDS011;11438;52.044;8.716;2024-02-15T05:56:00;6.35;;;4.63;;
22543;SDS011;11438;52.044;8.716;2024-02-15T05:58:29;7.70;;;4.85;;
22543;SDS011;11438;52.044;8.716;2024-02-15T06:00:55;6.85;;;4.50;;
22543;SDS011;11438;52.044;8.716;2024-02-15T06:03:25;5.38;;;4.40;;
22543;SDS011;11438;52.044;8.716;2024-02-15T06:05:51;6.50;;;4.93;;
22543;SDS011;11438;52.044;8.716;2024-02-15T06:08:17;18.65;;;8.27;;
22543;SDS011;11438;52.044;8.716;2024-02-15T06:10:43;18.95;;;10.90;;
22543;SDS011;11438;52.044;8.716;2024-02-15T06:13:09;20.27;;;10.55;;
22543;SDS011;11438;52.044;8.716;2024-02-15T06:15:35;11.25;;;6.82;;
22543;SDS011;11438;52.044;8.716;2024-02-15T06:18:01;10.10;;;6.25;;
22543;SDS011;11438;52.044;8.716;2024-02-15T06:20:28;8.68;;;5.00;;
22543;SDS011;11438;52.044;8.716;2024-02-15T06:22:55;6.45;;;3.67;;
22543;SDS011;11438;52.044;8.716;2024-02-15T06:25:21;4.60;;;3.47;;
22543;SDS011;11438;52.044;8.716;2024-02-15T06:27:48;5.60;;;3.38;;
22543;SDS011;11438;52.044;8.716;2024-02-15T06:30:16;5.45;;;3.40;;
22543;SDS011;11438;52.044;8.716;2024-02-15T06:33:00;7.13;;;3.67;;
22543;SDS011;11438;52.044;8.716;2024-02-15T06:35:44;7.57;;;3.63;;
22543;SDS011;11438;52.044;8.716;2024-02-15T06:38:28;4.85;;;3.88;;
22543;SDS011;11438;52.044;8.716;2024-02-15T06:41:12;5.88;;;3.50;;
22543;SDS011;11438;52.044;8.716;2024-02-15T06:43:38;5.90;;;3.47;;
22543;SDS011;11438;52.044;8.716;2024-02-15T06:46:07;6.82;;;3.78;;
22543;SDS011;11438;52.044;8.716;2024-02-15T06:48:33;4.60;;;3.40;;
22543;SDS011;11438;52.044;8.716;2024-02-15T06:50:59;4.85;;;3.58;;
22543;SDS011;11438;52.044;8.716;2024-02-15T06:53:24;4.80;;;3.92;;
22543;SDS011;11438;52.044;8.716;2024-02-15T06:55:50;4.88;;;3.42;;
22543;SDS011;11438;52.044;8.716;2024-02-15T06:58:16;7.28;;;4.07;;
22543;SDS011;11438;52.044;8.716;2024-02-15T07:00:42;4.88;;;3.83;;
22543;SDS011;11438;52.044;8.716;2024-02-15T07:03:08;7.65;;;3.95;;
22543;SDS011;11438;52.044;8.716;2024-02-15T07:05:35;7.55;;;3.78;;
22543;SDS011;11438;52.044;8.716;2024-02-15T07:08:03;5.18;;;3.42;;
22543;SDS011;11438;52.044;8.716;2024-02-15T07:10:30;4.63;;;3.40;;
22543;SDS011;11438;52.044;8.716;2024-02-15T07:12:56;6.03;;;3.50;;
22543;SDS011;11438;52.044;8.716;2024-02-15T07:15:22;6.88;;;3.45;;
22543;SDS011;11438;52.044;8.716;2024-02-15T07:17:47;4.72;;;2.95;;
22543;SDS011;11438;52.044;8.716;2024-02-15T07:20:13;3.65;;;2.90;;
22543;SDS011;11438;52.044;8.716;2024-02-15T07:22:42;4.45;;;2.58;;
22543;SDS011;11438;52.044;8.716;2024-02-15T07:25:08;4.43;;;2.75;;
22543;SDS011;11438;52.044;8.716;2024-02-15T07:27:35;4.57;;;2.78;;
22543;SDS011;11438;52.044;8.716;2024-02-15T07:30:00;4.55;;;2.85;;
22543;SDS011;11438;52.044;8.716;2024-02-15T07:32:27;4.35;;;2.65;;
22543;SDS011;11438;52.044;8.716;2024-02-15T07:34:52;3.53;;;2.40;;
22543;SDS011;11438;52.044;8.716;2024-02-15T07:37:18;4.90;;;2.53;;
22543;SDS011;11438;52.044;8.716;2024-02-15T07:39:43;5.22;;;2.33;;
22543;SDS011;11438;52.044;8.716;2024-02-15T07:42:09;5.95;;;2.55;;
22543;SDS011;11438;52.044;8.716;2024-02-15T07:44:35;4.03;;;2.47;;
22543;SDS011;11438;52.044;8.716;2024-02-15T07:47:01;6.72;;;2.75;;
22543;SDS011;11438;52.044;8.716;2024-02-15T07:49:27;4.18;;;2.42;;
22543;SDS011;11438;52.044;8.716;2024-02-15T07:51:53;3.50;;;2.40;;
22543;SDS011;11438;52.044;8.716;2024-02-15T07:54:19;4.00;;;2.05;;
22543;SDS011;11438;52.044;8.716;2024-02-15T07:56:48;3.55;;;1.98;;
22543;SDS011;11438;52.044;8.716;2024-02-15T07:59:14;6.35;;;2.50;;
22543;SDS011;11438;52.044;8.716;2024-02-15T08:01:46;3.45;;;2.10;;
22543;SDS011;11438;52.044;8.716;2024-02-15T08:04:14;4.70;;;2.28;;
22543;SDS011;11438;52.044;8.716;2024-02-15T08:06:40;4.28;;;2.13;;
22543;SDS011;11438;52.044;8.716;2024-02-15T08:09:06;3.58;;;1.92;;
22543;SDS011;11438;52.044;8.716;2024-02-15T08:11:32;3.20;;;2.20;;
22543;SDS011;11438;52.044;8.716;2024-02-15T08:13:57;5.15;;;1.80;;
22543;SDS011;11438;52.044;8.716;2024-02-15T08:16:24;4.43;;;1.73;;
22543;SDS011;11438;52.044;8.716;2024-02-15T08:18:52;2.70;;;1.67;;
22543;SDS011;11438;52.044;8.716;2024-02-15T08:21:28;3.40;;;1.70;;
22543;SDS011;11438;52.044;8.716;2024-02-15T08:24:04;3.15;;;1.80;;
22543;SDS011;11438;52.044;8.716;2024-02-15T08:26:33;4.90;;;2.03;;
22543;SDS011;11438;52.044;8.716;2024-02-15T08:29:06;3.70;;;1.98;;
22543;SDS011;11438;52.044;8.716;2024-02-15T08:31:32;5.82;;;1.88;;
22543;SDS011;11438;52.044;8.716;2024-02-15T08:33:58;3.00;;;1.70;;
22543;SDS011;11438;52.044;8.716;2024-02-15T08:36:25;3.05;;;1.55;;
22543;SDS011;11438;52.044;8.716;2024-02-15T08:38:51;4.57;;;2.03;;
22543;SDS011;11438;52.044;8.716;2024-02-15T08:41:16;5.10;;;1.80;;
22543;SDS011;11438;52.044;8.716;2024-02-15T08:43:46;6.00;;;2.10;;
22543;SDS011;11438;52.044;8.716;2024-02-15T08:46:13;5.15;;;1.88;;
22543;SDS011;11438;52.044;8.716;2024-02-15T08:48:39;4.57;;;1.73;;
22543;SDS011;11438;52.044;8.716;2024-02-15T08:51:05;2.67;;;1.55;;
22543;SDS011;11438;52.044;8.716;2024-02-15T08:53:33;4.50;;;2.08;;
22543;SDS011;11438;52.044;8.716;2024-02-15T08:56:01;3.60;;;1.50;;
22543;SDS011;11438;52.044;8.716;2024-02-15T08:58:27;3.92;;;1.60;;
22543;SDS011;11438;52.044;8.716;2024-02-15T09:00:55;3.33;;;1.92;;
22543;SDS011;11438;52.044;8.716;2024-02-15T09:03:21;4.15;;;2.25;;
22543;SDS011;11438;52.044;8.716;2024-02-15T09:05:46;3.53;;;1.83;;
22543;SDS011;11438;52.044;8.716;2024-02-15T09:08:13;3.75;;;1.85;;
22543;SDS011;11438;52.044;8.716;2024-02-15T09:10:40;4.25;;;1.98;;
22543;SDS011;11438;52.044;8.716;2024-02-15T09:13:07;5.15;;;1.55;;
22543;SDS011;11438;52.044;8.716;2024-02-15T09:15:33;3.47;;;1.65;;
22543;SDS011;11438;52.044;8.716;2024-02-15T09:17:58;6.45;;;2.53;;
22543;SDS011;11438;52.044;8.716;2024-02-15T09:20:24;5.43;;;1.95;;
22543;SDS011;11438;52.044;8.716;2024-02-15T09:22:53;3.10;;;1.90;;
22543;SDS011;11438;52.044;8.716;2024-02-15T09:25:19;2.67;;;1.92;;
22543;SDS011;11438;52.044;8.716;2024-02-15T09:27:48;4.82;;;2.22;;
22543;SDS011;11438;52.044;8.716;2024-02-15T09:30:14;3.53;;;2.50;;
22543;SDS011;11438;52.044;8.716;2024-02-15T09:32:40;2.40;;;1.73;;
22543;SDS011;11438;52.044;8.716;2024-02-15T09:35:07;4.93;;;1.90;;
22543;SDS011;11438;52.044;8.716;2024-02-15T09:37:34;3.20;;;2.30;;
22543;SDS011;11438;52.044;8.716;2024-02-15T09:40:00;4.47;;;2.47;;
22543;SDS011;11438;52.044;8.716;2024-02-15T09:42:31;3.30;;;1.90;;
22543;SDS011;11438;52.044;8.716;2024-02-15T09:44:59;3.60;;;1.50;;
22543;SDS011;11438;52.044;8.716;2024-02-15T09:47:26;5.57;;;1.70;;
22543;SDS011;11438;52.044;8.716;2024-02-15T09:50:11;2.38;;;1.30;;
22543;SDS011;11438;52.044;8.716;2024-02-15T09:52:39;4.30;;;1.42;;
22543;SDS011;11438;52.044;8.716;2024-02-15T09:55:05;3.78;;;1.80;;
22543;SDS011;11438;52.044;8.716;2024-02-15T09:57:35;2.72;;;1.20;;
22543;SDS011;11438;52.044;8.716;2024-02-15T10:00:01;2.47;;;1.20;;
22543;SDS011;11438;52.044;8.716;2024-02-15T10:02:28;3.55;;;1.70;;
22543;SDS011;11438;52.044;8.716;2024-02-15T10:04:55;5.85;;;1.48;;
22543;SDS011;11438;52.044;8.716;2024-02-15T10:07:22;3.72;;;1.63;;
22543;SDS011;11438;52.044;8.716;2024-02-15T10:09:52;3.38;;;1.40;;
22543;SDS011;11438;52.044;8.716;2024-02-15T10:12:17;5.03;;;1.58;;
22543;SDS011;11438;52.044;8.716;2024-02-15T10:14:49;4.53;;;1.42;;
22543;SDS011;11438;52.044;8.716;2024-02-15T10:17:17;2.78;;;1.40;;
22543;SDS011;11438;52.044;8.716;2024-02-15T10:19:44;4.30;;;1.70;;
22543;SDS011;11438;52.044;8.716;2024-02-15T10:22:12;1.85;;;1.17;;
22543;SDS011;11438;52.044;8.716;2024-02-15T10:24:39;4.30;;;1.52;;
22543;SDS011;11438;52.044;8.716;2024-02-15T10:27:05;5.25;;;1.67;;
22543;SDS011;11438;52.044;8.716;2024-02-15T10:29:32;3.03;;;1.40;;
22543;SDS011;11438;52.044;8.716;2024-02-15T10:31:59;3.65;;;1.50;;
22543;SDS011;11438;52.044;8.716;2024-02-15T10:34:26;3.70;;;1.60;;
22543;SDS011;11438;52.044;8.716;2024-02-15T10:37:14;3.30;;;1.42;;
22543;SDS011;11438;52.044;8.716;2024-02-15T10:39:45;3.47;;;1.40;;
22543;SDS011;11438;52.044;8.716;2024-02-15T10:42:11;2.60;;;1.45;;
22543;SDS011;11438;52.044;8.716;2024-02-15T10:44:38;3.85;;;1.52;;
22543;SDS011;11438;52.044;8.716;2024-02-15T10:47:05;2.35;;;1.17;;
22543;SDS011;11438;52.044;8.716;2024-02-15T10:49:32;2.72;;;1.30;;
22543;SDS011;11438;52.044;8.716;2024-02-15T10:52:01;2.45;;;1.35;;
22543;SDS011;11438;52.044;8.716;2024-02-15T10:54:43;3.63;;;1.42;;
22543;SDS011;11438;52.044;8.716;2024-02-15T10:57:31;3.28;;;1.75;;
22543;SDS011;11438;52.044;8.716;2024-02-15T10:59:58;3.05;;;1.50;;
22543;SDS011;11438;52.044;8.716;2024-02-15T11:02:42;2.28;;;1.20;;
22543;SDS011;11438;52.044;8.716;2024-02-15T11:05:13;3.90;;;1.13;;
22543;SDS011;11438;52.044;8.716;2024-02-15T11:07:45;3.55;;;1.45;;
22543;SDS011;11438;52.044;8.716;2024-02-15T11:10:11;2.67;;;1.48;;
22543;SDS011;11438;52.044;8.716;2024-02-15T11:12:41;2.88;;;1.50;;
22543;SDS011;11438;52.044;8.716;2024-02-15T11:15:08;3.30;;;1.25;;
22543;SDS011;11438;52.044;8.716;2024-02-15T11:20:08;4.72;;;1.38;;
22543;SDS011;11438;52.044;8.716;2024-02-15T11:22:36;2.70;;;1.20;;
22543;SDS011;11438;52.044;8.716;2024-02-15T11:25:02;3.25;;;1.60;;
22543;SDS011;11438;52.044;8.716;2024-02-15T11:27:36;3.92;;;1.48;;
22543;SDS011;11438;52.044;8.716;2024-02-15T11:30:04;3.78;;;1.70;;
22543;SDS011;11438;52.044;8.716;2024-02-15T11:32:48;3.00;;;1.38;;
22543;SDS011;11438;52.044;8.716;2024-02-15T11:35:20;4.88;;;1.52;;
22543;SDS011;11438;52.044;8.716;2024-02-15T11:40:22;3.90;;;1.77;;
22543;SDS011;11438;52.044;8.716;2024-02-15T11:43:36;3.53;;;1.33;;
22543;SDS011;11438;52.044;8.716;2024-02-15T11:46:00;3.70;;;1.20;;
22543;SDS011;11438;52.044;8.716;2024-02-15T11:48:27;4.22;;;1.27;;
22543;SDS011;11438;52.044;8.716;2024-02-15T11:50:53;4.10;;;1.30;;
22543;SDS011;11438;52.044;8.716;2024-02-15T11:53:18;3.40;;;1.25;;
22543;SDS011;11438;52.044;8.716;2024-02-15T11:55:44;4.00;;;1.00;;
22543;SDS011;11438;52.044;8.716;2024-02-15T11:58:10;1.85;;;1.13;;
22543;SDS011;11438;52.044;8.716;2024-02-15T12:00:53;3.78;;;1.30;;
22543;SDS011;11438;52.044;8.716;2024-02-15T12:03:42;2.97;;;0.95;;
22543;SDS011;11438;52.044;8.716;2024-02-15T12:06:27;2.63;;;1.10;;
22543;SDS011;11438;52.044;8.716;2024-02-15T12:09:11;2.67;;;1.02;;
22543;SDS011;11438;52.044;8.716;2024-02-15T12:11:58;1.48;;;1.05;;
22543;SDS011;11438;52.044;8.716;2024-02-15T12:14:42;2.03;;;0.80;;
22543;SDS011;11438;52.044;8.716;2024-02-15T12:17:26;1.98;;;0.98;;
22543;SDS011;11438;52.044;8.716;2024-02-15T12:20:10;1.40;;;1.00;;
22543;SDS011;11438;52.044;8.716;2024-02-15T12:22:40;2.50;;;0.98;;
22543;SDS011;11438;52.044;8.716;2024-02-15T12:25:16;2.67;;;1.00;;
22543;SDS011;11438;52.044;8.716;2024-02-15T12:27:46;1.73;;;0.98;;
22543;SDS011;11438;52.044;8.716;2024-02-15T12:30:17;2.63;;;0.98;;
22543;SDS011;11438;52.044;8.716;2024-02-15T12:32:49;2.63;;;1.08;;
22543;SDS011;11438;52.044;8.716;2024-02-15T12:35:16;1.88;;;1.02;;
22543;SDS011;11438;52.044;8.716;2024-02-15T12:40:30;3.15;;;1.20;;
22543;SDS011;11438;52.044;8.716;2024-02-15T12:42:59;2.63;;;1.10;;
22543;SDS011;11438;52.044;8.716;2024-02-15T12:45:25;1.42;;;0.93;;
22543;SDS011;11438;52.044;8.716;2024-02-15T12:47:54;2.17;;;0.90;;
22543;SDS011;11438;52.044;8.716;2024-02-15T12:50:21;2.40;;;0.90;;
22543;SDS011;11438;52.044;8.716;2024-02-15T12:52:55;2.70;;;0.98;;
22543;SDS011;11438;52.044;8.716;2024-02-15T12:55:26;2.28;;;0.90;;
22543;SDS011;11438;52.044;8.716;2024-02-15T12:57:53;3.92;;;1.10;;
22543;SDS011;11438;52.044;8.716;2024-02-15T13:00:22;2.08;;;0.90;;
22543;SDS011;11438;52.044;8.716;2024-02-15T13:02:57;2.38;;;0.90;;
22543;SDS011;11438;52.044;8.716;2024-02-15T13:05:25;5.63;;;1.35;;
22543;SDS011;11438;52.044;8.716;2024-02-15T13:07:52;3.70;;;0.82;;
22543;SDS011;11438;52.044;8.716;2024-02-15T13:10:21;2.22;;;0.82;;
22543;SDS011;11438;52.044;8.716;2024-02-15T13:12:48;2.80;;;1.17;;
22543;SDS011;11438;52.044;8.716;2024-02-15T13:15:14;2.28;;;0.90;;
22543;SDS011;11438;52.044;8.716;2024-02-15T13:17:45;3.20;;;0.90;;
22543;SDS011;11438;52.044;8.716;2024-02-15T13:20:13;3.88;;;1.10;;
22543;SDS011;11438;52.044;8.716;2024-02-15T13:22:43;2.25;;;0.82;;
22543;SDS011;11438;52.044;8.716;2024-02-15T13:25:09;5.68;;;1.15;;
22543;SDS011;11438;52.044;8.716;2024-02-15T13:27:35;2.60;;;1.13;;
22543;SDS011;11438;52.044;8.716;2024-02-15T13:30:03;3.83;;;1.00;;
22543;SDS011;11438;52.044;8.716;2024-02-15T13:32:33;2.42;;;0.90;;
22543;SDS011;11438;52.044;8.716;2024-02-15T13:35:03;2.92;;;1.20;;
22543;SDS011;11438;52.044;8.716;2024-02-15T13:37:38;1.50;;;0.80;;
22543;SDS011;11438;52.044;8.716;2024-02-15T13:40:08;2.10;;;1.20;;
22543;SDS011;11438;52.044;8.716;2024-02-15T13:42:40;4.30;;;2.25;;
22543;SDS011;11438;52.044;8.716;2024-02-15T13:45:14;2.05;;;1.00;;
22543;SDS011;11438;52.044;8.716;2024-02-15T13:47:44;6.22;;;1.85;;
22543;SDS011;11438;52.044;8.716;2024-02-15T13:50:12;3.47;;;1.13;;
22543;SDS011;11438;52.044;8.716;2024-02-15T13:52:39;3.42;;;1.25;;
22543;SDS011;11438;52.044;8.716;2024-02-15T13:55:09;2.47;;;1.00;;
22543;SDS011;11438;52.044;8.716;2024-02-15T13:57:36;3.22;;;0.90;;
22543;SDS011;11438;52.044;8.716;2024-02-15T14:00:02;1.42;;;0.80;;
22543;SDS011;11438;52.044;8.716;2024-02-15T14:02:30;3.75;;;1.00;;
22543;SDS011;11438;52.044;8.716;2024-02-15T14:04:56;4.07;;;1.10;;
22543;SDS011;11438;52.044;8.716;2024-02-15T14:07:22;2.72;;;1.02;;
22543;SDS011;11438;52.044;8.716;2024-02-15T14:09:47;2.15;;;0.70;;
22543;SDS011;11438;52.044;8.716;2024-02-15T14:12:12;2.97;;;0.85;;
22543;SDS011;11438;52.044;8.716;2024-02-15T14:14:39;1.75;;;0.70;;
22543;SDS011;11438;52.044;8.716;2024-02-15T14:17:05;2.78;;;0.85;;
22543;SDS011;11438;52.044;8.716;2024-02-15T14:19:30;1.58;;;0.85;;
22543;SDS011;11438;52.044;8.716;2024-02-15T14:21:56;3.47;;;0.98;;
22543;SDS011;11438;52.044;8.716;2024-02-15T14:24:22;1.65;;;0.85;;
22543;SDS011;11438;52.044;8.716;2024-02-15T14:26:48;2.35;;;0.80;;
22543;SDS011;11438;52.044;8.716;2024-02-15T14:29:13;2.40;;;1.08;;
22543;SDS011;11438;52.044;8.716;2024-02-15T14:31:39;2.88;;;0.85;;
22543;SDS011;11438;52.044;8.716;2024-02-15T14:34:23;2.50;;;0.68;;
22543;SDS011;11438;52.044;8.716;2024-02-15T14:36:50;1.83;;;0.80;;
22543;SDS011;11438;52.044;8.716;2024-02-15T14:39:16;2.20;;;1.10;;
22543;SDS011;11438;52.044;8.716;2024-02-15T14:41:42;2.92;;;1.30;;
22543;SDS011;11438;52.044;8.716;2024-02-15T14:44:08;3.15;;;1.23;;
22543;SDS011;11438;52.044;8.716;2024-02-15T14:46:35;2.40;;;1.10;;
22543;SDS011;11438;52.044;8.716;2024-02-15T14:49:01;3.15;;;1.13;;
22543;SDS011;11438;52.044;8.716;2024-02-15T14:51:27;1.58;;;0.60;;
22543;SDS011;11438;52.044;8.716;2024-02-15T14:53:53;2.25;;;0.90;;
22543;SDS011;11438;52.044;8.716;2024-02-15T14:56:19;1.80;;;0.60;;
22543;SDS011;11438;52.044;8.716;2024-02-15T14:58:44;1.98;;;0.80;;
22543;SDS011;11438;52.044;8.716;2024-02-15T15:01:10;2.83;;;0.73;;